createdAt,value
2018-09-07T00:01:42.558Z,3.33
2018-09-07T00:04:10.786Z,1.00
2018-09-07T00:06:42.787Z,1.60
2018-09-07T00:09:11.078Z,0.90
2018-09-07T00:11:39.266Z,6.15
2018-09-07T00:14:07.478Z,2.10
2018-09-07T00:16:35.659Z,1.00
2018-09-07T00:19:03.860Z,3.17
2018-09-07T00:21:32.064Z,0.80
2018-09-07T00:24:00.253Z,2.80
2018-09-07T00:26:28.473Z,10.23
2018-09-07T00:28:56.677Z,2.70
2018-09-07T00:31:24.862Z,0.90
2018-09-07T00:33:53.052Z,2.87
2018-09-07T00:36:21.263Z,3.10
2018-09-07T00:38:49.459Z,1.20
2018-09-07T00:41:17.638Z,2.40
2018-09-07T00:43:45.831Z,1.00
2018-09-07T00:46:14.065Z,6.12
2018-09-07T00:48:42.254Z,1.40
2018-09-07T00:51:11.148Z,9.10
2018-09-07T00:53:42.842Z,1.07
2018-09-07T00:56:11.048Z,4.58
2018-09-07T00:58:39.228Z,1.75
2018-09-07T01:01:07.443Z,9.58
2018-09-07T01:03:35.622Z,0.80
2018-09-07T01:06:03.855Z,1.60
2018-09-07T01:08:32.033Z,1.60
2018-09-07T01:11:00.222Z,1.32
2018-09-07T01:13:28.434Z,7.03
2018-09-07T01:15:56.635Z,1.70
2018-09-07T01:18:24.837Z,1.00
2018-09-07T01:20:53.128Z,1.07
2018-09-07T01:23:21.299Z,1.20
2018-09-07T01:25:49.517Z,2.00
2018-09-07T01:28:17.706Z,0.90
2018-09-07T01:30:45.930Z,1.75
2018-09-07T01:33:14.131Z,1.30
2018-09-07T01:35:42.323Z,2.25
2018-09-07T01:38:16.096Z,0.90
2018-09-07T01:40:44.292Z,4.05
2018-09-07T01:43:12.535Z,1.50
2018-09-07T01:45:40.752Z,1.00
2018-09-07T01:48:08.965Z,1.62
2018-09-07T01:50:37.146Z,1.20
2018-09-07T01:53:05.758Z,0.90
2018-09-07T01:55:33.932Z,2.85
2018-09-07T01:58:02.149Z,2.50
2018-09-07T02:00:30.351Z,1.10
2018-09-07T02:03:04.033Z,1.37
2018-09-07T02:05:32.223Z,1.80
2018-09-07T02:08:00.437Z,1.30
2018-09-07T02:10:28.727Z,1.20
2018-09-07T02:12:56.915Z,0.90
2018-09-07T02:15:25.088Z,6.73
2018-09-07T02:17:53.275Z,1.30
2018-09-07T02:20:21.490Z,2.70
2018-09-07T02:22:49.673Z,9.97
2018-09-07T02:25:17.851Z,11.53
2018-09-07T02:27:46.012Z,8.50
2018-09-07T02:30:14.337Z,12.63
2018-09-07T02:32:42.404Z,13.50
2018-09-07T02:35:10.628Z,9.60
2018-09-07T02:37:38.835Z,4.27
2018-09-07T02:40:07.018Z,12.77
2018-09-07T02:42:35.180Z,0.80
2018-09-07T02:45:03.400Z,1.90
2018-09-07T02:47:31.596Z,3.10
2018-09-07T02:49:59.771Z,2.80
2018-09-07T02:52:27.965Z,0.80
2018-09-07T02:54:57.182Z,20.30
2018-09-07T02:57:25.389Z,10.30
2018-09-07T02:59:53.563Z,1.40
2018-09-07T03:02:21.742Z,0.80
2018-09-07T03:04:49.922Z,9.80
2018-09-07T03:07:18.106Z,2.60
2018-09-07T03:09:46.349Z,3.10
2018-09-07T03:12:14.551Z,0.80
2018-09-07T03:14:42.774Z,3.13
2018-09-07T03:17:10.998Z,24.20
2018-09-07T03:19:39.163Z,4.53
2018-09-07T03:22:07.344Z,9.27
2018-09-07T03:24:36.094Z,6.40
2018-09-07T03:27:05.020Z,1.20
2018-09-07T03:29:33.183Z,7.03
2018-09-07T03:32:01.386Z,3.33
2018-09-07T03:34:29.669Z,7.57
2018-09-07T03:36:57.869Z,19.03
2018-09-07T03:39:26.091Z,26.00
2018-09-07T03:41:54.456Z,23.77
2018-09-07T03:44:22.650Z,27.47
2018-09-07T03:46:50.898Z,23.50
2018-09-07T03:49:19.080Z,27.90
2018-09-07T03:51:47.293Z,12.90
2018-09-07T03:54:15.519Z,21.33
2018-09-07T03:56:43.688Z,34.10
2018-09-07T03:59:11.905Z,32.87
2018-09-07T04:01:40.075Z,33.73
2018-09-07T04:04:08.288Z,26.90
2018-09-07T04:06:36.739Z,26.23
2018-09-07T04:09:06.745Z,39.90
2018-09-07T04:11:35.053Z,25.30
2018-09-07T04:14:03.365Z,4.70
2018-09-07T04:16:31.637Z,25.95
2018-09-07T04:18:59.845Z,8.93
2018-09-07T04:21:28.050Z,24.95
2018-09-07T04:23:56.222Z,3.40
2018-09-07T04:26:24.438Z,7.42
2018-09-07T04:28:52.641Z,13.60
2018-09-07T04:31:20.830Z,10.20
2018-09-07T04:33:49.039Z,4.28
2018-09-07T04:36:17.205Z,4.80
2018-09-07T04:38:45.454Z,8.35
2018-09-07T04:41:13.721Z,6.28
2018-09-07T04:43:41.938Z,7.00
2018-09-07T04:46:10.114Z,5.00
2018-09-07T04:48:38.329Z,7.35
2018-09-07T04:51:06.543Z,2.20
2018-09-07T04:53:34.741Z,2.40
2018-09-07T04:56:03.043Z,7.45
2018-09-07T04:58:31.240Z,4.20
2018-09-07T05:00:59.406Z,13.00
2018-09-07T05:03:27.620Z,2.62
2018-09-07T05:05:55.800Z,2.60
2018-09-07T05:08:24.141Z,3.00
2018-09-07T05:10:52.346Z,1.92
2018-09-07T05:13:20.571Z,2.63
2018-09-07T05:15:48.862Z,3.15
2018-09-07T05:18:17.031Z,6.28
2018-09-07T05:20:45.237Z,3.60
2018-09-07T05:23:13.461Z,4.80
2018-09-07T05:25:41.703Z,7.37
2018-09-07T05:28:10.078Z,10.70
2018-09-07T05:30:38.301Z,1.40
2018-09-07T05:33:06.545Z,7.42
2018-09-07T05:35:34.726Z,7.13
2018-09-07T05:38:02.957Z,5.00
2018-09-07T05:40:31.128Z,4.15
2018-09-07T05:42:59.437Z,0.90
2018-09-07T05:45:27.631Z,1.10
2018-09-07T05:47:55.829Z,8.50
2018-09-07T05:50:24.026Z,3.60
2018-09-07T05:52:52.268Z,1.00
2018-09-07T05:55:20.502Z,2.60
2018-09-07T05:57:48.691Z,2.10
2018-09-07T06:00:16.894Z,1.82
2018-09-07T06:02:45.112Z,5.60
2018-09-07T06:05:13.339Z,0.90
2018-09-07T06:07:41.535Z,3.10
2018-09-07T06:10:09.718Z,2.90
2018-09-07T06:12:37.921Z,2.20
2018-09-07T06:15:06.181Z,1.60
2018-09-07T06:17:34.382Z,2.10
2018-09-07T06:20:02.621Z,2.90
2018-09-07T06:22:30.955Z,1.40
2018-09-07T06:24:59.090Z,2.40
2018-09-07T06:27:27.301Z,2.80
2018-09-07T06:29:55.540Z,8.58
2018-09-07T06:32:23.704Z,3.50
2018-09-07T06:34:51.945Z,2.95
2018-09-07T06:37:20.153Z,10.30
2018-09-07T06:39:48.374Z,1.10
2018-09-07T06:42:16.593Z,2.03
2018-09-07T06:44:44.799Z,2.20
2018-09-07T06:47:13.234Z,17.40
2018-09-07T06:49:41.465Z,16.65
2018-09-07T06:52:09.690Z,10.10
2018-09-07T06:54:37.878Z,3.00
2018-09-07T06:57:06.094Z,2.30
2018-09-07T06:59:34.307Z,7.50
2018-09-07T07:02:02.508Z,2.60
2018-09-07T07:04:30.790Z,3.70
2018-09-07T07:06:58.951Z,4.42
2018-09-07T07:09:27.165Z,9.18
2018-09-07T07:11:55.368Z,4.55
2018-09-07T07:14:23.588Z,4.30
2018-09-07T07:16:51.755Z,3.08
2018-09-07T07:19:19.952Z,3.33
2018-09-07T07:21:48.111Z,10.50
2018-09-07T07:24:16.299Z,11.18
2018-09-07T07:26:44.518Z,3.60
2018-09-07T07:29:12.776Z,7.25
2018-09-07T07:31:41.006Z,7.67
2018-09-07T07:34:09.227Z,7.70
2018-09-07T07:36:37.440Z,3.60
2018-09-07T07:39:07.201Z,2.58
2018-09-07T07:41:35.426Z,3.30
2018-09-07T07:44:03.645Z,8.53
2018-09-07T07:46:31.891Z,3.60
2018-09-07T07:49:00.113Z,5.00
2018-09-07T07:51:28.374Z,10.03
2018-09-07T07:53:56.559Z,13.65
2018-09-07T07:56:24.743Z,3.60
2018-09-07T07:58:52.927Z,9.40
2018-09-07T08:01:21.113Z,2.60
2018-09-07T08:03:49.330Z,6.70
2018-09-07T08:06:17.533Z,2.50
2018-09-07T08:08:45.777Z,1.90
2018-09-07T08:11:13.981Z,2.87
2018-09-07T08:13:42.166Z,4.22
2018-09-07T08:16:10.364Z,4.60
2018-09-07T08:18:38.568Z,7.80
2018-09-07T08:21:06.784Z,7.45
2018-09-07T08:23:34.969Z,4.20
2018-09-07T08:26:03.147Z,4.80
2018-09-07T08:28:31.306Z,5.40
2018-09-07T08:30:59.488Z,3.92
2018-09-07T08:33:27.701Z,7.00
2018-09-07T08:35:55.949Z,6.20
2018-09-07T08:38:24.140Z,5.97
2018-09-07T08:40:52.373Z,9.28
2018-09-07T08:43:20.504Z,2.50
2018-09-07T08:45:48.708Z,4.20
2018-09-07T08:48:16.924Z,9.20
2018-09-07T08:50:45.118Z,2.02
2018-09-07T08:53:13.301Z,4.70
2018-09-07T08:55:41.535Z,5.25
2018-09-07T08:58:09.741Z,3.08
2018-09-07T09:00:37.918Z,9.93
2018-09-07T09:03:06.133Z,6.42
2018-09-07T09:05:34.325Z,5.20
2018-09-07T09:08:02.671Z,5.53
2018-09-07T09:10:30.858Z,2.55
2018-09-07T09:12:59.067Z,5.35
2018-09-07T09:15:27.274Z,18.00
2018-09-07T09:17:55.489Z,11.43
2018-09-07T09:20:23.690Z,1.85
2018-09-07T09:22:51.887Z,6.80
2018-09-07T09:25:20.066Z,8.70
2018-09-07T09:27:48.261Z,2.40
2018-09-07T09:30:16.456Z,3.62
2018-09-07T09:32:44.739Z,8.20
2018-09-07T09:35:12.906Z,5.20
2018-09-07T09:37:41.087Z,7.70
2018-09-07T09:40:09.329Z,7.85
2018-09-07T09:42:37.574Z,7.33
2018-09-07T09:45:05.767Z,3.85
2018-09-07T09:47:33.981Z,5.97
2018-09-07T09:50:02.275Z,10.50
2018-09-07T09:52:30.467Z,4.40
2018-09-07T09:54:58.664Z,5.80
2018-09-07T09:57:26.869Z,6.72
2018-09-07T09:59:55.090Z,9.20
2018-09-07T10:02:28.852Z,3.90
2018-09-07T10:05:10.014Z,3.00
2018-09-07T10:07:38.214Z,6.35
2018-09-07T10:10:06.391Z,14.55
2018-09-07T10:12:34.614Z,4.90
2018-09-07T10:15:02.803Z,4.28
2018-09-07T10:17:31.020Z,7.15
2018-09-07T10:19:59.214Z,3.67
2018-09-07T10:22:27.391Z,7.75
2018-09-07T10:24:55.595Z,1.60
2018-09-07T10:27:23.961Z,1.70
2018-09-07T10:29:52.167Z,4.33
2018-09-07T10:32:20.383Z,3.40
2018-09-07T10:34:48.558Z,5.28
2018-09-07T10:37:16.773Z,3.40
2018-09-07T10:39:44.972Z,5.30
2018-09-07T10:42:13.190Z,5.12
2018-09-07T10:44:41.402Z,1.72
2018-09-07T10:47:09.624Z,6.35
2018-09-07T10:49:37.810Z,3.95
2018-09-07T10:52:06.065Z,1.60
2018-09-07T10:54:34.277Z,5.65
2018-09-07T10:57:02.536Z,1.62
2018-09-07T10:59:30.797Z,2.70
2018-09-07T11:01:58.897Z,1.90
2018-09-07T11:04:27.134Z,2.00
2018-09-07T11:06:55.335Z,2.27
2018-09-07T11:09:23.524Z,1.30
2018-09-07T11:11:51.720Z,2.98
2018-09-07T11:14:19.896Z,4.35
2018-09-07T11:16:48.127Z,2.50
2018-09-07T11:19:16.307Z,2.70
2018-09-07T11:21:44.481Z,2.95
2018-09-07T11:24:13.830Z,1.77
2018-09-07T11:26:42.048Z,1.32
2018-09-07T11:29:11.134Z,2.50
2018-09-07T11:31:39.305Z,2.90
2018-09-07T11:34:07.522Z,2.57
2018-09-07T11:36:35.795Z,3.22
2018-09-07T11:39:05.232Z,4.50
2018-09-07T11:41:33.423Z,2.10
2018-09-07T11:44:01.637Z,1.35
2018-09-07T11:46:29.833Z,1.40
2018-09-07T11:48:58.025Z,1.60
2018-09-07T11:51:26.230Z,2.70
2018-09-07T11:53:54.416Z,5.20
2018-09-07T11:56:22.599Z,2.30
2018-09-07T11:58:50.860Z,4.00
2018-09-07T12:01:19.041Z,1.50
2018-09-07T12:03:47.258Z,1.70
2018-09-07T12:06:15.462Z,1.80
2018-09-07T12:08:43.662Z,2.00
2018-09-07T12:11:12.225Z,2.30
2018-09-07T12:13:40.403Z,1.10
2018-09-07T12:16:08.623Z,1.22
2018-09-07T12:18:36.811Z,1.62
2018-09-07T12:21:05.085Z,0.90
2018-09-07T12:23:33.307Z,1.10
2018-09-07T12:26:01.412Z,4.30
2018-09-07T12:28:29.615Z,1.30
2018-09-07T12:30:57.825Z,1.13
2018-09-07T12:33:26.019Z,1.10
2018-09-07T12:35:54.247Z,1.83
2018-09-07T12:38:22.415Z,2.60
2018-09-07T12:40:50.606Z,1.00
2018-09-07T12:43:18.792Z,2.03
2018-09-07T12:45:47.010Z,1.73
2018-09-07T12:48:15.236Z,1.10
2018-09-07T12:50:43.452Z,1.37
2018-09-07T12:53:11.638Z,1.67
2018-09-07T12:55:39.850Z,3.57
2018-09-07T12:58:08.063Z,0.80
2018-09-07T13:00:36.248Z,1.73
2018-09-07T13:03:04.438Z,3.67
2018-09-07T13:05:38.099Z,3.30
2018-09-07T13:08:06.292Z,1.30
2018-09-07T13:10:34.443Z,1.23
2018-09-07T13:13:02.635Z,0.90
2018-09-07T13:15:30.809Z,1.00
2018-09-07T13:17:59.006Z,0.90
2018-09-07T13:20:27.179Z,1.30
2018-09-07T13:22:55.353Z,0.87
2018-09-07T13:25:23.527Z,1.47
2018-09-07T13:27:51.706Z,0.93
2018-09-07T13:30:20.578Z,1.47
2018-09-07T13:32:48.751Z,1.67
2018-09-07T13:35:16.953Z,5.33
2018-09-07T13:37:45.333Z,2.20
2018-09-07T13:40:13.564Z,1.10
2018-09-07T13:42:41.766Z,1.47
2018-09-07T13:45:09.945Z,1.13
2018-09-07T13:47:38.166Z,2.70
2018-09-07T13:50:06.748Z,2.13
2018-09-07T13:52:34.932Z,1.50
2018-09-07T13:55:03.133Z,1.60
2018-09-07T13:57:31.298Z,2.20
2018-09-07T13:59:59.484Z,1.63
2018-09-07T14:02:27.676Z,1.97
2018-09-07T14:04:55.874Z,1.45
2018-09-07T14:07:24.187Z,4.00
2018-09-07T14:09:52.394Z,1.30
2018-09-07T14:12:20.633Z,2.85
2018-09-07T14:14:48.842Z,1.00
2018-09-07T14:17:17.019Z,1.40
2018-09-07T14:19:45.198Z,1.70
2018-09-07T14:22:13.412Z,1.80
2018-09-07T14:24:41.611Z,1.30
2018-09-07T14:27:09.838Z,2.25
2018-09-07T14:29:38.060Z,1.50
2018-09-07T14:32:06.736Z,1.40
2018-09-07T14:34:34.927Z,2.10
2018-09-07T14:37:03.152Z,1.40
2018-09-07T14:39:31.311Z,1.30
2018-09-07T14:41:59.487Z,1.30
2018-09-07T14:44:27.701Z,2.62
2018-09-07T14:46:55.897Z,1.22
2018-09-07T14:49:24.112Z,1.10
2018-09-07T14:51:52.434Z,2.30
2018-09-07T14:54:20.624Z,0.90
2018-09-07T14:56:48.833Z,1.90
2018-09-07T15:02:07.833Z,1.10
2018-09-07T15:04:36.089Z,1.40
2018-09-07T15:07:04.359Z,1.40
2018-09-07T15:09:32.638Z,1.80
2018-09-07T15:12:00.864Z,1.00
2018-09-07T15:14:29.104Z,1.80
2018-09-07T15:16:57.376Z,1.00
2018-09-07T15:19:25.612Z,1.20
2018-09-07T15:21:53.889Z,2.60
2018-09-07T15:24:22.120Z,0.90
2018-09-07T15:26:50.302Z,1.10
2018-09-07T15:29:18.489Z,1.00
2018-09-07T15:34:37.588Z,1.80
2018-09-07T15:37:05.852Z,1.20
2018-09-07T15:39:34.081Z,1.10
2018-09-07T15:42:02.376Z,1.10
2018-09-07T15:44:30.638Z,1.50
2018-09-07T15:46:58.880Z,0.93
2018-09-07T15:49:27.102Z,0.90
2018-09-07T15:51:55.352Z,1.20
2018-09-07T15:54:23.640Z,2.00
2018-09-07T15:56:51.885Z,1.00
2018-09-07T15:59:20.097Z,1.10
2018-09-07T16:01:48.358Z,1.00
2018-09-07T16:04:16.635Z,1.70
2018-09-07T16:06:44.852Z,1.00
2018-09-07T16:09:13.121Z,1.00
2018-09-07T16:11:41.385Z,0.90
2018-09-07T16:14:09.632Z,1.00
2018-09-07T16:16:37.900Z,1.30
2018-09-07T16:19:06.149Z,1.40
2018-09-07T16:21:34.412Z,1.00
2018-09-07T16:24:02.632Z,1.00
2018-09-07T16:26:30.881Z,1.00
2018-09-07T16:28:59.402Z,1.50
2018-09-07T16:31:27.672Z,0.90
2018-09-07T16:33:55.830Z,0.90
2018-09-07T16:39:15.043Z,1.80
2018-09-07T16:41:43.258Z,1.00
2018-09-07T16:44:11.502Z,1.10
2018-09-07T16:49:31.061Z,0.90
2018-09-07T16:51:59.298Z,1.22
2018-09-07T16:54:27.620Z,1.00
2018-09-07T16:59:46.623Z,0.90
2018-09-07T17:02:14.894Z,0.90
2018-09-07T17:04:43.139Z,1.00
2018-09-07T17:07:11.395Z,0.90
2018-09-07T17:09:39.682Z,1.00
2018-09-07T17:12:07.945Z,0.90
2018-09-07T17:14:36.177Z,0.90
2018-09-07T17:17:04.490Z,1.00
2018-09-07T17:19:32.748Z,0.90
2018-09-07T17:22:00.984Z,0.90
2018-09-07T17:24:30.282Z,0.90
2018-09-07T17:26:58.523Z,0.90
2018-09-07T17:29:27.131Z,1.00
2018-09-07T17:31:55.384Z,1.60
2018-09-07T17:34:23.601Z,0.90
2018-09-07T17:36:51.926Z,0.90
2018-09-07T17:39:20.157Z,1.22
2018-09-07T17:41:48.386Z,0.90
2018-09-07T17:44:16.613Z,0.90
2018-09-07T17:46:44.865Z,1.00
2018-09-07T17:49:13.118Z,0.90
2018-09-07T17:51:41.372Z,0.90
2018-09-07T17:54:09.602Z,0.90
2018-09-07T17:56:37.862Z,1.00
2018-09-07T17:59:06.255Z,1.30
2018-09-07T18:01:34.514Z,1.10
2018-09-07T18:04:02.753Z,2.20
2018-09-07T18:06:31.009Z,1.10
2018-09-07T18:08:59.232Z,1.50
2018-09-07T18:11:27.518Z,0.90
2018-09-07T18:13:55.782Z,0.90
2018-09-07T18:16:24.046Z,1.00
2018-09-07T18:18:52.315Z,1.00
2018-09-07T18:21:20.569Z,0.90
2018-09-07T18:23:48.801Z,1.00
2018-09-07T18:26:17.057Z,1.20
2018-09-07T18:28:45.296Z,0.90
2018-09-07T18:31:13.520Z,0.90
2018-09-07T18:33:41.861Z,0.90
2018-09-07T18:36:10.526Z,0.90
2018-09-07T18:38:38.382Z,1.30
2018-09-07T18:41:06.610Z,0.90
2018-09-07T18:43:36.082Z,1.00
2018-09-07T18:46:04.314Z,0.90
2018-09-07T18:48:32.525Z,0.90
2018-09-07T18:51:00.795Z,2.00
2018-09-07T18:53:29.022Z,0.90
2018-09-07T18:55:57.277Z,1.00
2018-09-07T18:58:25.546Z,0.90
2018-09-07T19:00:53.815Z,1.00
2018-09-07T19:03:22.037Z,1.45
2018-09-07T19:05:50.303Z,0.90
2018-09-07T19:08:18.550Z,0.90
2018-09-07T19:10:46.809Z,0.90
2018-09-07T19:13:15.068Z,0.90
2018-09-07T19:15:43.447Z,1.00
2018-09-07T19:18:11.600Z,0.90
2018-09-07T19:20:39.854Z,0.93
2018-09-07T19:23:08.097Z,1.10
2018-09-07T19:25:36.344Z,2.50
2018-09-07T19:28:04.705Z,0.90
2018-09-07T19:30:32.972Z,0.90
2018-09-07T19:33:01.488Z,0.90
2018-09-07T19:35:30.784Z,0.90
2018-09-07T19:37:59.206Z,0.90
2018-09-07T19:40:27.505Z,0.90
2018-09-07T19:42:55.752Z,1.70
2018-09-07T19:45:24.086Z,1.50
2018-09-07T19:47:52.316Z,0.90
2018-09-07T19:50:20.594Z,0.90
2018-09-07T19:52:48.853Z,0.90
2018-09-07T19:55:17.098Z,1.10
2018-09-07T19:57:45.354Z,0.90
2018-09-07T20:00:13.589Z,0.90
2018-09-07T20:02:41.862Z,0.90
2018-09-07T20:05:10.112Z,0.90
2018-09-07T20:07:38.450Z,0.90
2018-09-07T20:10:06.703Z,0.90
2018-09-07T20:12:34.948Z,1.20
2018-09-07T20:15:03.342Z,0.90
2018-09-07T20:17:31.560Z,0.90
2018-09-07T20:19:59.818Z,0.90
2018-09-07T20:22:28.073Z,0.90
2018-09-07T20:24:56.276Z,0.90
2018-09-07T20:27:24.585Z,0.90
2018-09-07T20:29:52.799Z,0.90
2018-09-07T20:32:21.928Z,0.90
2018-09-07T20:34:50.168Z,0.90
2018-09-07T20:37:18.553Z,0.90
2018-09-07T20:39:47.199Z,0.87
2018-09-07T20:42:15.439Z,0.87
2018-09-07T20:44:43.669Z,0.90
2018-09-07T20:47:11.949Z,0.90
2018-09-07T20:49:40.252Z,0.90
2018-09-07T20:52:08.541Z,0.90
2018-09-07T20:54:36.883Z,0.90
2018-09-07T20:57:05.388Z,0.90
2018-09-07T20:59:33.612Z,1.00
2018-09-07T21:02:01.942Z,0.90
2018-09-07T21:04:30.207Z,0.87
2018-09-07T21:06:58.453Z,0.80
2018-09-07T21:09:26.797Z,1.37
2018-09-07T21:11:55.028Z,0.90
2018-09-07T21:14:23.287Z,1.10
2018-09-07T21:16:51.565Z,1.53
2018-09-07T21:19:19.821Z,1.47
2018-09-07T21:21:48.088Z,1.33
2018-09-07T21:24:16.341Z,0.90
2018-09-07T21:26:44.697Z,0.80
2018-09-07T21:29:12.979Z,0.90
2018-09-07T21:31:41.221Z,2.50
2018-09-07T21:34:09.493Z,0.80
2018-09-07T21:36:37.723Z,0.83
2018-09-07T21:39:08.644Z,0.90
2018-09-07T21:41:36.899Z,0.83
2018-09-07T21:44:05.167Z,0.90
2018-09-07T21:46:33.420Z,0.90
2018-09-07T21:49:01.772Z,0.90
2018-09-07T21:51:30.009Z,0.90
2018-09-07T21:53:58.246Z,0.80
2018-09-07T21:56:26.487Z,1.00
2018-09-07T21:58:54.837Z,0.90
2018-09-07T22:01:23.091Z,0.80
2018-09-07T22:03:51.318Z,1.00
2018-09-07T22:06:19.577Z,0.90
2018-09-07T22:08:47.865Z,0.83
2018-09-07T22:11:16.219Z,0.90
2018-09-07T22:13:44.667Z,1.40
2018-09-07T22:16:12.933Z,0.80
2018-09-07T22:18:41.893Z,0.90
2018-09-07T22:24:01.447Z,0.87
2018-09-07T22:26:29.692Z,0.80
2018-09-07T22:28:57.918Z,0.90
2018-09-07T22:31:26.187Z,0.90
2018-09-07T22:33:54.378Z,0.80
2018-09-07T22:36:22.611Z,0.80
2018-09-07T22:38:50.857Z,0.80
2018-09-07T22:41:19.091Z,0.90
2018-09-07T22:43:48.585Z,0.80
2018-09-07T22:46:16.823Z,0.80
2018-09-07T22:48:45.049Z,0.90
2018-09-07T22:51:13.303Z,0.87
2018-09-07T22:53:41.521Z,0.90
2018-09-07T22:56:09.764Z,0.80
2018-09-07T22:58:38.013Z,0.80
2018-09-07T23:01:06.243Z,0.87
2018-09-07T23:03:34.479Z,0.80
2018-09-07T23:06:02.807Z,2.20
2018-09-07T23:08:31.052Z,0.80
2018-09-07T23:10:59.352Z,1.73
2018-09-07T23:13:28.192Z,1.30
2018-09-07T23:15:56.452Z,0.80
2018-09-07T23:18:24.705Z,0.80
2018-09-07T23:20:52.983Z,0.80
2018-09-07T23:23:21.216Z,0.80
2018-09-07T23:25:49.457Z,0.90
2018-09-07T23:28:17.700Z,0.87
2018-09-07T23:30:45.961Z,1.63
2018-09-07T23:33:14.226Z,4.20
2018-09-07T23:35:42.500Z,1.20
2018-09-07T23:38:10.749Z,0.93
2018-09-07T23:40:39.017Z,1.83
2018-09-07T23:43:07.253Z,0.90
2018-09-07T23:45:35.492Z,2.20
2018-09-07T23:48:03.741Z,6.83
2018-09-07T23:50:31.981Z,0.80
2018-09-07T23:53:00.231Z,1.30
2018-09-07T23:55:28.473Z,2.70
